Time;durP1;ratioP1;P1;durP2;ratioP2;P2;SDS_P1;SDS_P2;PMS_P1;PMS_P2;Temp;Humidity;BMP_temperature;BMP_pressure;BME280_temperature;BME280_humidity;BME280_pressure;Samples;Min_cycle;Max_cycle;Signal;HPM_P1;HPM_P2
2022/08/31 00:04:24;;;;;;;;;;;;;;;15.67;100.00;-20238.28;5054366;28;19924;-78
2022/08/31 00:06:49;;;;;;;;;;;;;;;15.67;100.00;-20567.72;5053737;28;19916;-78
2022/08/31 00:09:14;;;;;;;;;;;;;;;15.62;100.00;-20566.88;5054528;28;19923;-78
2022/08/31 00:11:40;;;;;;;;;;;;;;;15.58;100.00;-21224.75;5054197;28;19976;-77
2022/08/31 00:14:10;;;;;;;;;;;;;;;15.57;100.00;-21553.84;5053506;28;19924;-78
2022/08/31 00:16:38;;;;;;;;;;;;;;;15.52;100.00;-21881.88;5054307;28;19923;-78
2022/08/31 00:19:03;;;;;;;;;;;;;;;15.51;100.00;-22210.97;5054500;28;19923;-78
2022/08/31 00:21:29;;;;;;;;;;;;;;;15.53;100.00;-21552.84;5054114;28;19920;-79
2022/08/31 00:23:55;;;;;;;;;;;;;;;15.50;100.00;-21552.28;5055185;28;20377;-77
2022/08/31 00:26:21;;;;;;;;;;;;;;;15.42;100.00;-22208.97;5054846;28;20399;-79
2022/08/31 00:28:46;;;;;;;;;;;;;;;15.44;100.00;-21880.13;5053406;28;19921;-76
2022/08/31 00:31:12;;;;;;;;;;;;;;;15.46;100.00;-21880.59;5053549;28;20281;-78
2022/08/31 00:33:37;;;;;;;;;;;;;;;15.46;100.00;-21880.47;5052129;28;20013;-76
2022/08/31 00:36:04;;;;;;;;;;;;;;;15.40;100.00;-21879.31;5051588;28;19967;-74
2022/08/31 00:38:29;;;;;;;;;;;;;;;15.39;100.00;-21549.88;5052796;28;19928;-76
2022/08/31 00:40:54;;;;;;;;;;;;;;;15.35;100.00;-22207.19;5052333;28;19917;-77
2022/08/31 00:43:40;;;;;;;;;;;;;;;15.31;100.00;-22535.44;5051725;28;19924;-77
2022/08/31 00:46:07;;;;;;;;;;;;;;;15.32;100.00;-22535.56;5052757;28;20380;-76
2022/08/31 00:48:32;;;;;;;;;;;;;;;15.28;100.00;-22205.63;5052328;28;19923;-77
2022/08/31 00:50:58;;;;;;;;;;;;;;;15.27;100.00;-22534.47;5052444;28;19917;-76
2022/08/31 00:53:25;;;;;;;;;;;;;;;15.29;100.00;-22205.75;5052725;28;20373;-77
2022/08/31 00:55:51;;;;;;;;;;;;;;;15.25;100.00;-21875.81;5052079;28;19912;-76
2022/08/31 00:58:16;;;;;;;;;;;;;;;15.23;100.00;-21546.38;5051903;28;19921;-76
2022/08/31 01:00:42;;;;;;;;;;;;;;;15.19;100.00;-21545.34;5052781;28;20133;-76
2022/08/31 01:03:08;;;;;;;;;;;;;;;15.17;100.00;-21873.97;5052065;28;19927;-76
2022/08/31 01:05:34;;;;;;;;;;;;;;;15.15;100.00;-21544.44;5050940;28;19952;-78
2022/08/31 01:08:00;;;;;;;;;;;;;;;15.14;100.00;-21873.28;5051669;28;20022;-76
2022/08/31 01:10:28;;;;;;;;;;;;;;;15.14;100.00;-21544.31;5052233;28;19916;-77
2022/08/31 01:12:55;;;;;;;;;;;;;;;15.09;100.00;-22201.22;5051877;28;20007;-78
2022/08/31 01:15:21;;;;;;;;;;;;;;;15.03;100.00;-22528.75;5052089;28;20365;-78
2022/08/31 01:17:47;;;;;;;;;;;;;;;15.00;100.00;-23185.94;5051356;28;19921;-75
2022/08/31 01:20:19;;;;;;;;;;;;;;;14.97;100.00;-23513.88;5050924;28;20529;-76
2022/08/31 01:22:45;;;;;;;;;;;;;;;14.92;100.00;-23841.50;5052893;28;19924;-76
2022/08/31 01:25:11;;;;;;;;;;;;;;;14.93;100.00;-24170.50;5051154;28;19964;-75
2022/08/31 01:27:37;;;;;;;;;;;;;;;14.89;100.00;-24169.56;5052702;28;19967;-76
2022/08/31 01:30:09;;;;;;;;;;;;;;;14.87;100.00;-25155.03;5051736;28;19917;-77
2022/08/31 01:32:34;;;;;;;;;;;;;;;14.81;100.00;-24824.56;5051613;28;19917;-74
2022/08/31 01:34:59;;;;;;;;;;;;;;;14.81;100.00;-25153.19;5051414;28;19931;-76
2022/08/31 01:37:25;;;;;;;;;;;;;;;14.78;100.00;-25480.88;5051345;28;19921;-76
2022/08/31 01:39:50;;;;;;;;;;;;;;;14.76;100.00;-25480.44;5052400;28;20357;-75
2022/08/31 01:42:17;;;;;;;;;;;;;;;14.69;100.00;-25480.47;5051262;28;19935;-77
2022/08/31 01:44:42;;;;;;;;;;;;;;;14.68;100.00;-25480.03;5051342;28;20011;-75
2022/08/31 01:47:07;;;;;;;;;;;;;;;14.66;100.00;-25479.59;5051173;28;19967;-76
2022/08/31 01:49:32;;;;;;;;;;;;;;;14.61;100.00;-25478.16;5051464;28;19917;-76
2022/08/31 01:51:58;;;;;;;;;;;;;;;14.60;100.00;-25477.84;5050695;28;19917;-76
2022/08/31 01:54:26;;;;;;;;;;;;;;;14.56;100.00;-25476.69;5051316;28;19912;-76
2022/08/31 01:56:52;;;;;;;;;;;;;;;14.51;100.00;-25475.38;5051731;28;20357;-76
2022/08/31 01:59:18;;;;;;;;;;;;;;;14.50;100.00;-25474.94;5051097;28;19964;-76
2022/08/31 02:01:45;;;;;;;;;;;;;;;14.51;100.00;-25475.22;5051244;28;19966;-76
2022/08/31 02:04:13;;;;;;;;;;;;;;;14.49;100.00;-25474.63;5050890;28;19917;-76
2022/08/31 02:06:40;;;;;;;;;;;;;;;14.46;100.00;-25473.91;5051505;28;20419;-75
2022/08/31 02:09:06;;;;;;;;;;;;;;;14.45;100.00;-25473.47;5050865;28;20289;-75
2022/08/31 02:11:31;;;;;;;;;;;;;;;14.48;100.00;-25474.34;5052380;28;19916;-75
2022/08/31 02:13:59;;;;;;;;;;;;;;;14.45;100.00;-25473.47;5050418;28;20334;-75
2022/08/31 02:16:25;;;;;;;;;;;;;;;14.46;100.00;-25473.75;5050750;28;20007;-76
2022/08/31 02:18:50;;;;;;;;;;;;;;;14.40;100.00;-25472.16;5051187;28;19958;-76
2022/08/31 02:21:16;;;;;;;;;;;;;;;14.32;100.00;-25469.84;5052158;28;19917;-76
2022/08/31 02:23:41;;;;;;;;;;;;;;;14.30;100.00;-25469.41;5051113;28;19921;-76
2022/08/31 02:26:06;;;;;;;;;;;;;;;14.29;100.00;-25468.97;5050610;28;19944;-75
2022/08/31 02:28:32;;;;;;;;;;;;;;;14.25;100.00;-25467.78;5050220;28;19924;-76
2022/08/31 02:30:57;;;;;;;;;;;;;;;14.22;100.00;-25467.06;5050811;28;19917;-76
2022/08/31 02:33:29;;;;;;;;;;;;;;;14.23;100.00;-25467.34;5052154;28;19971;-76
2022/08/31 02:35:54;;;;;;;;;;;;;;;14.24;100.00;-25467.66;5048751;28;19925;-77
2022/08/31 02:38:21;;;;;;;;;;;;;;;14.22;100.00;-25466.91;5050471;28;20071;-75
2022/08/31 02:40:47;;;;;;;;;;;;;;;14.21;100.00;-25466.78;5050337;28;19921;-76
2022/08/31 02:43:13;;;;;;;;;;;;;;;14.19;100.00;-25466.19;5050204;28;19917;-75
2022/08/31 02:45:38;;;;;;;;;;;;;;;14.18;100.00;-25465.91;5050272;28;19923;-76
2022/08/31 02:48:04;;;;;;;;;;;;;;;14.16;100.00;-25465.31;5049959;28;19921;-75
2022/08/31 02:50:30;;;;;;;;;;;;;;;14.13;100.00;-25464.59;5049700;28;20388;-76
2022/08/31 02:52:56;;;;;;;;;;;;;;;14.09;100.00;-25463.28;5049658;28;19917;-76
2022/08/31 02:55:22;;;;;;;;;;;;;;;14.04;100.00;-25461.81;5050185;28;19940;-75
2022/08/31 02:57:49;;;;;;;;;;;;;;;14.03;100.00;-25461.53;5049654;28;19917;-76
2022/08/31 03:00:14;;;;;;;;;;;;;;;13.97;100.00;-25460.06;5049753;28;19928;-76
2022/08/31 03:02:40;;;;;;;;;;;;;;;13.94;100.00;-25459.03;5048899;28;19917;-76
2022/08/31 03:05:09;;;;;;;;;;;;;;;13.93;100.00;-25458.91;5049806;28;19940;-74
2022/08/31 03:07:34;;;;;;;;;;;;;;;13.93;100.00;-25458.91;5055138;28;20390;-74
2022/08/31 03:10:01;;;;;;;;;;;;;;;13.92;100.00;-25458.47;5053868;28;19971;-75
2022/08/31 03:12:27;;;;;;;;;;;;;;;13.93;100.00;-25458.75;5054463;28;20365;-74
2022/08/31 03:14:52;;;;;;;;;;;;;;;13.87;100.00;-25457.00;5054179;28;19920;-75
2022/08/31 03:17:18;;;;;;;;;;;;;;;13.83;100.00;-25455.97;5053555;28;19917;-75
2022/08/31 03:19:43;;;;;;;;;;;;;;;13.85;100.00;-25456.56;5054704;28;19923;-75
2022/08/31 03:22:09;;;;;;;;;;;;;;;13.79;100.00;-25454.81;5053455;28;20023;-76
2022/08/31 03:24:34;;;;;;;;;;;;;;;13.78;100.00;-25454.53;5054250;28;19921;-77
2022/08/31 03:27:01;;;;;;;;;;;;;;;13.77;100.00;-25454.38;5053730;28;20106;-77
2022/08/31 03:29:26;;;;;;;;;;;;;;;13.76;100.00;-25453.94;5054023;28;19916;-76
2022/08/31 03:31:51;;;;;;;;;;;;;;;13.73;100.00;-25453.06;5053247;28;19921;-76
2022/08/31 03:34:16;;;;;;;;;;;;;;;13.71;100.00;-25452.63;5053232;28;19920;-77
2022/08/31 03:36:42;;;;;;;;;;;;;;;13.69;100.00;-25452.03;5054023;28;19917;-77
2022/08/31 03:39:07;;;;;;;;;;;;;;;13.70;100.00;-25452.19;5054215;28;19917;-78
2022/08/31 03:41:32;;;;;;;;;;;;;;;13.72;100.00;-25452.91;5054135;28;20016;-75
2022/08/31 03:44:00;;;;;;;;;;;;;;;13.70;100.00;-25452.34;5054092;28;20379;-76
2022/08/31 03:46:26;;;;;;;;;;;;;;;13.69;100.00;-25452.03;5054089;28;19960;-76
2022/08/31 03:48:53;;;;;;;;;;;;;;;13.70;100.00;-25452.19;5054149;28;19956;-76
2022/08/31 03:51:18;;;;;;;;;;;;;;;13.72;100.00;-25452.91;5053937;28;20406;-76
2022/08/31 03:53:48;;;;;;;;;;;;;;;13.70;100.00;-25452.19;5053885;28;19959;-78
2022/08/31 03:56:13;;;;;;;;;;;;;;;13.64;100.00;-25450.72;5054413;28;19920;-79
2022/08/31 03:58:38;;;;;;;;;;;;;;;13.61;100.00;-25449.72;5053928;28;19919;-76
2022/08/31 04:01:04;;;;;;;;;;;;;;;13.59;100.00;-25449.28;5053516;28;19920;-76
2022/08/31 04:03:30;;;;;;;;;;;;;;;13.59;100.00;-25449.13;5053920;28;19980;-76
2022/08/31 04:05:55;;;;;;;;;;;;;;;13.56;100.00;-25448.38;5052714;28;19919;-77
2022/08/31 04:08:21;;;;;;;;;;;;;;;13.54;100.00;-25447.81;5053557;28;19916;-76
2022/08/31 04:10:47;;;;;;;;;;;;;;;13.50;100.00;-25446.66;5054871;28;20020;-77
2022/08/31 04:13:13;;;;;;;;;;;;;;;13.51;100.00;-25446.94;5053137;28;20439;-76
2022/08/31 04:15:38;;;;;;;;;;;;;;;13.44;100.00;-25444.91;5053284;28;19917;-77
2022/08/31 04:18:04;;;;;;;;;;;;;;;13.43;100.00;-25444.59;5053460;28;19920;-75
2022/08/31 04:20:32;;;;;;;;;;;;;;;13.40;100.00;-25443.72;5054195;28;20015;-75
2022/08/31 04:22:58;;;;;;;;;;;;;;;13.44;100.00;-25444.91;5054739;28;20358;-76
2022/08/31 04:25:23;;;;;;;;;;;;;;;13.42;100.00;-25444.31;5053816;28;19960;-77
2022/08/31 04:27:49;;;;;;;;;;;;;;;13.45;100.00;-25445.19;5053175;28;19956;-75
2022/08/31 04:30:14;;;;;;;;;;;;;;;13.44;100.00;-25444.91;5052582;28;20312;-77
2022/08/31 04:32:41;;;;;;;;;;;;;;;13.43;100.00;-25444.59;5052809;28;19916;-78
2022/08/31 04:35:07;;;;;;;;;;;;;;;13.44;100.00;-25444.91;5053053;28;19974;-77
2022/08/31 04:37:33;;;;;;;;;;;;;;;13.44;100.00;-25445.03;5054722;28;19917;-78
2022/08/31 04:40:00;;;;;;;;;;;;;;;13.48;100.00;-25446.06;5053395;28;19917;-78
2022/08/31 04:42:29;;;;;;;;;;;;;;;13.47;100.00;-25445.78;5053006;28;19923;-76
2022/08/31 04:44:56;;;;;;;;;;;;;;;13.47;100.00;-25445.78;5052839;28;20201;-77
2022/08/31 04:47:21;;;;;;;;;;;;;;;13.45;100.00;-25445.34;5053509;28;19947;-78
2022/08/31 04:49:47;;;;;;;;;;;;;;;13.48;100.00;-25445.91;5052633;28;19917;-78
2022/08/31 04:52:13;;;;;;;;;;;;;;;13.47;100.00;-25445.78;5052778;28;19917;-77
2022/08/31 04:54:38;;;;;;;;;;;;;;;13.44;100.00;-25444.91;5053073;28;19913;-75
2022/08/31 04:57:04;;;;;;;;;;;;;;;13.43;100.00;-25444.75;5052683;28;20019;-78
2022/08/31 04:59:29;;;;;;;;;;;;;;;13.45;100.00;-25445.19;5053153;28;19955;-77
2022/08/31 05:01:54;;;;;;;;;;;;;;;13.47;100.00;-25445.78;5052605;28;19939;-76
2022/08/31 05:04:23;;;;;;;;;;;;;;;13.49;100.00;-25446.22;5052489;28;19968;-78
2022/08/31 05:06:48;;;;;;;;;;;;;;;13.45;100.00;-25445.19;5052303;28;19913;-76
2022/08/31 05:09:18;;;;;;;;;;;;;;;13.49;100.00;-25446.34;5051062;28;20403;-78
2022/08/31 05:11:44;;;;;;;;;;;;;;;13.54;100.00;-25447.81;5051652;28;19999;-75
2022/08/31 05:14:12;;;;;;;;;;;;;;;13.68;100.00;-25451.75;5051682;28;20391;-77
2022/08/31 05:16:38;;;;;;;;;;;;;;;13.88;100.00;-23814.75;5051465;28;19982;-76
2022/08/31 05:19:03;;;;;;;;;;;;;;;14.31;100.00;-20868.56;5051281;28;20357;-75
2022/08/31 05:21:30;;;;;;;;;;;;;;;14.39;100.00;-16923.31;5051888;28;20016;-76
2022/08/31 05:23:57;;;;;;;;;;;;;;;14.33;100.00;-13630.47;5051083;28;19917;-76
2022/08/31 05:26:24;;;;;;;;;;;;;;;14.20;100.00;-10005.50;5052366;28;20450;-77
2022/08/31 05:28:49;;;;;;;;;;;;;;;14.22;100.00;-9016.66;5051639;28;20027;-77
2022/08/31 05:31:15;;;;;;;;;;;;;;;14.84;100.00;-6377.22;5050388;28;19974;-76
2022/08/31 05:33:41;;;;;;;;;;;;;;;15.38;100.00;2226.63;5050926;28;19917;-76
2022/08/31 05:36:07;;;;;;;;;;;;;;;15.52;100.00;14174.97;5050490;28;19925;-76
2022/08/31 05:38:33;;;;;;;;;;;;;;;15.48;100.00;24822.31;5050679;28;20292;-75
2022/08/31 05:40:59;;;;;;;;;;;;;;;15.90;100.00;33189.34;5050483;28;19962;-76
2022/08/31 05:43:26;;;;;;;;;;;;;;;16.26;100.00;48288.28;5050477;28;19917;-76
2022/08/31 05:45:53;;;;;;;;;;;;;;;16.25;100.00;66790.94;5048143;28;20373;-76
2022/08/31 05:48:19;;;;;;;;;;;;;;;16.63;100.00;91542.84;5050547;28;20478;-77
2022/08/31 05:50:45;;;;;;;;;;;;;;;16.51;100.00;122872.97;5050790;28;20007;-75
2022/08/31 05:53:11;;;;;;;;;;;;;;;16.09;100.00;146781.06;5050971;28;20388;-77
2022/08/31 05:55:37;;;;;;;;;;;;;;;16.51;100.00;146884.56;5052313;28;19995;-77
2022/08/31 05:58:02;;;;;;;;;;;;;;;16.84;100.00;146966.31;5052171;28;20354;-80
2022/08/31 06:00:29;;;;;;;;;;;;;;;17.25;100.00;147067.38;5051901;28;19917;-78
2022/08/31 06:02:58;;;;;;;;;;;;;;;17.11;100.00;147034.13;5052135;28;19916;-78
2022/08/31 06:05:23;;;;;;;;;;;;;;;16.38;100.00;146852.63;5053680;28;20350;-79
2022/08/31 06:07:49;;;;;;;;;;;;;;;15.94;100.00;146742.75;5051883;28;19917;-78
2022/08/31 06:10:14;;;;;;;;;;;;;;;16.17;100.00;146798.97;5052954;28;19928;-78
2022/08/31 06:12:42;;;;;;;;;;;;;;;15.75;100.00;146696.78;5051829;28;19917;-78
2022/08/31 06:15:09;;;;;;;;;;;;;;;15.70;100.00;146682.72;5051913;28;19917;-78
2022/08/31 06:17:34;;;;;;;;;;;;;;;15.21;100.00;146561.44;5052056;28;19917;-78
2022/08/31 06:20:02;;;;;;;;;;;;;;;14.96;100.00;146498.91;5052683;28;20011;-78
2022/08/31 06:22:28;;;;;;;;;;;;;;;15.24;100.00;146569.09;5051832;28;19951;-78
2022/08/31 06:24:53;;;;;;;;;;;;;;;15.25;100.00;146571.66;5051792;28;19920;-77
2022/08/31 06:27:18;;;;;;;;;;;;;;;15.36;100.00;146598.47;5051912;28;20393;-79
2022/08/31 06:29:44;;;;;;;;;;;;;;;15.32;100.00;146588.22;5052270;28;19917;-79
2022/08/31 06:32:12;;;;;;;;;;;;;;;15.29;100.00;146580.56;5051444;28;19923;-78
2022/08/31 06:34:38;;;;;;;;;;;;;;;15.52;100.00;146639.34;5052910;28;20289;-78
2022/08/31 06:37:04;;;;;;;;;;;;;;;15.40;100.00;146608.69;5052830;28;19928;-78
2022/08/31 06:39:29;;;;;;;;;;;;;;;15.56;100.00;146649.50;5051843;28;19917;-80
2022/08/31 06:41:55;;;;;;;;;;;;;;;15.86;100.00;146723.59;5054314;28;20352;-80
2022/08/31 06:44:26;;;;;;;;;;;;;;;15.97;100.00;146751.72;5055841;28;19940;-79
2022/08/31 06:46:51;;;;;;;;;;;;;;;16.38;100.00;146852.63;5057121;28;20007;-79
2022/08/31 06:49:18;;;;;;;;;;;;;;;16.67;100.00;146924.16;5055423;28;19964;-79
2022/08/31 06:51:43;;;;;;;;;;;;;;;16.28;100.00;146827.06;5056936;28;19948;-78
2022/08/31 06:54:10;;;;;;;;;;;;;;;16.11;100.00;146784.91;5055028;28;19924;-80
2022/08/31 06:56:35;;;;;;;;;;;;;;;16.05;100.00;146770.91;5055109;28;19963;-80
2022/08/31 06:59:01;;;;;;;;;;;;;;;16.09;100.00;146781.06;5054280;28;19917;-81
2022/08/31 07:01:27;;;;;;;;;;;;;;;16.06;100.00;146773.41;5055510;28;19921;-80
2022/08/31 07:03:54;;;;;;;;;;;;;;;16.07;100.00;146774.72;5055248;28;19923;-82
2022/08/31 07:06:25;;;;;;;;;;;;;;;16.45;100.00;146869.22;5055719;28;19916;-81
2022/08/31 07:08:51;;;;;;;;;;;;;;;16.55;100.00;146893.53;5056685;28;19939;-80
2022/08/31 07:11:19;;;;;;;;;;;;;;;16.69;100.00;146929.28;5056459;28;19924;-79
2022/08/31 07:13:50;;;;;;;;;;;;;;;17.07;100.00;147023.88;5056856;28;19917;-78
2022/08/31 07:16:17;;;;;;;;;;;;;;;17.09;100.00;147027.72;5056408;28;19943;-79
2022/08/31 07:18:43;;;;;;;;;;;;;;;16.98;100.00;147000.88;5055453;28;20057;-82
2022/08/31 07:21:15;;;;;;;;;;;;;;;16.95;100.00;146993.22;5056243;28;19956;-81
2022/08/31 07:23:41;;;;;;;;;;;;;;;16.68;100.00;146926.72;5055156;28;19959;-79
2022/08/31 07:26:08;;;;;;;;;;;;;;;16.89;100.00;146979.19;5056994;28;19917;-80
2022/08/31 07:28:34;;;;;;;;;;;;;;;16.78;100.00;146952.28;5055576;28;19923;-79
2022/08/31 07:31:02;;;;;;;;;;;;;;;17.25;100.00;147067.38;5054824;28;20004;-80
2022/08/31 07:33:37;;;;;;;;;;;;;;;17.13;100.00;147039.22;5056478;28;20355;-80
2022/08/31 07:36:06;;;;;;;;;;;;;;;17.28;100.00;147075.03;5055685;28;19991;-80
2022/08/31 07:44:03;;;;;;;;;;;;;;;18.16;100.00;147294.97;5057225;28;20416;-81
2022/08/31 07:46:30;;;;;;;;;;;;;;;18.72;100.00;147434.47;5054704;28;20020;-78
2022/08/31 07:48:55;;;;;;;;;;;;;;;18.57;100.00;147397.34;5055145;28;19917;-80
2022/08/31 07:51:22;;;;;;;;;;;;;;;18.66;100.00;147420.38;5056888;28;19917;-78
2022/08/31 07:53:49;;;;;;;;;;;;;;;19.07;100.00;147521.53;5055668;28;19925;-79
2022/08/31 07:56:17;;;;;;;;;;;;;;;19.44;100.00;147612.44;5056702;28;19920;-78
2022/08/31 07:58:46;;;;;;;;;;;;;;;19.49;100.00;147625.22;5056876;28;20353;-80
2022/08/31 08:01:12;;;;;;;;;;;;;;;19.14;100.00;147538.16;5056435;28;20274;-78
2022/08/31 08:03:42;;;;;;;;;;;;;;;19.05;100.00;147516.41;5055462;28;19950;-76
2022/08/31 08:06:11;;;;;;;;;;;;;;;19.05;100.00;147515.09;5055880;28;19917;-78
2022/08/31 08:08:36;;;;;;;;;;;;;;;19.00;100.00;147504.91;5052872;28;19921;-77
2022/08/31 08:11:02;;;;;;;;;;;;;;;19.16;100.00;147544.56;5053889;28;20304;-77
2022/08/31 08:13:31;;;;;;;;;;;;;;;19.32;100.00;147584.22;5053060;28;20246;-79
2022/08/31 08:15:57;;;;;;;;;;;;;;;19.34;100.00;147589.38;5054179;28;19944;-78
2022/08/31 08:18:22;;;;;;;;;;;;;;;19.34;100.00;147588.06;5053740;28;19924;-78
2022/08/31 08:20:47;;;;;;;;;;;;;;;19.55;100.00;147640.56;5054854;28;19963;-79
2022/08/31 08:23:20;;;;;;;;;;;;;;;19.32;100.00;147582.97;5053544;28;19921;-79
2022/08/31 08:25:45;;;;;;;;;;;;;;;19.66;100.00;147668.72;5054046;28;20366;-79
2022/08/31 08:28:16;;;;;;;;;;;;;;;19.79;100.00;147700.78;5052580;28;19916;-79
2022/08/31 08:30:43;;;;;;;;;;;;;;;20.19;100.00;147799.44;5053949;28;19921;-79
2022/08/31 08:33:12;;;;;;;;;;;;;;;20.11;100.00;147780.22;5053054;28;19924;-79
2022/08/31 08:35:37;;;;;;;;;;;;;;;19.93;100.00;147734.09;5053441;28;20377;-79
2022/08/31 08:38:02;;;;;;;;;;;;;;;20.23;100.00;147810.94;5053725;28;19940;-78
2022/08/31 08:40:35;;;;;;;;;;;;;;;20.18;100.00;147796.84;5053627;28;19913;-78
2022/08/31 08:43:03;;;;;;;;;;;;;;;20.13;100.00;147784.06;5053210;28;19956;-79
2022/08/31 08:45:28;;;;;;;;;;;;;;;20.12;100.00;147781.47;5052386;28;19919;-80
2022/08/31 08:47:55;;;;;;;;;;;;;;;19.99;100.00;147749.47;5052601;28;20276;-81
2022/08/31 08:50:22;;;;;;;;;;;;;;;20.44;100.00;147862.19;5053425;28;19986;-79
2022/08/31 08:52:47;;;;;;;;;;;;;;;20.78;100.00;147948.06;5054132;28;19920;-78
2022/08/31 08:55:15;;;;;;;;;;;;;;;20.23;100.00;147809.69;5052571;28;19971;-77
2022/08/31 08:57:42;;;;;;;;;;;;;;;20.21;100.00;147804.53;5052669;28;20422;-78
2022/08/31 09:00:10;;;;;;;;;;;;;;;20.35;100.00;147840.38;5052518;28;19931;-77
2022/08/31 09:02:38;;;;;;;;;;;;;;;20.61;100.00;147904.47;5054030;28;19982;-78
2022/08/31 09:05:18;;;;;;;;;;;;;;;20.33;100.00;147835.28;5053256;28;19925;-80
2022/08/31 09:08:09;;;;;;;;;;;;;;;20.66;100.00;147917.31;5053215;28;19967;-79
2022/08/31 09:10:53;;;;;;;;;;;;;;;20.48;100.00;147872.44;5033943;28;19917;-81
2022/08/31 09:13:21;;;;;;;;;;;;;;;20.37;100.00;147845.53;5052858;28;19928;-77
2022/08/31 09:16:03;;;;;;;;;;;;;;;20.42;100.00;147857.06;5052801;28;19921;-76
2022/08/31 09:18:31;;;;;;;;;;;;;;;20.55;100.00;147890.34;5052937;28;19917;-78
2022/08/31 09:21:00;;;;;;;;;;;;;;;20.35;100.00;147839.13;5052316;28;20015;-76
2022/08/31 09:23:28;;;;;;;;;;;;;;;20.56;100.00;147891.66;5052650;28;20015;-78
2022/08/31 09:25:54;;;;;;;;;;;;;;;20.26;100.00;147818.63;5052684;28;19924;-77
2022/08/31 09:28:39;;;;;;;;;;;;;;;20.50;100.00;147876.28;5052371;28;19921;-78
2022/08/31 09:31:05;;;;;;;;;;;;;;;19.90;100.00;147727.69;5051800;28;19924;-78
2022/08/31 09:33:45;;;;;;;;;;;;;;;20.21;100.00;147805.84;5052363;28;19916;-81
2022/08/31 09:36:21;;;;;;;;;;;;;;;20.40;100.00;147853.22;5051850;28;19921;-79
2022/08/31 09:38:47;;;;;;;;;;;;;;;20.56;100.00;147891.66;5052852;28;19917;-78
2022/08/31 09:41:28;;;;;;;;;;;;;;;20.55;100.00;147890.34;5052187;28;19916;-81
2022/08/31 09:44:14;;;;;;;;;;;;;;;20.32;100.00;147832.69;5053292;28;19924;-79
2022/08/31 09:46:45;;;;;;;;;;;;;;;20.28;100.00;147822.47;5052443;28;19921;-79
2022/08/31 09:49:17;;;;;;;;;;;;;;;20.61;100.00;147904.47;5053171;28;19988;-77
2022/08/31 09:51:42;;;;;;;;;;;;;;;20.52;100.00;147881.41;5052244;28;19921;-79
2022/08/31 09:57:05;;;;;;;;;;;;;;;20.77;100.00;147944.22;5053720;28;19924;-80
2022/08/31 09:59:36;;;;;;;;;;;;;;;20.60;100.00;147901.88;5052366;28;19916;-79
2022/08/31 10:02:06;;;;;;;;;;;;;;;20.37;100.00;147845.53;5053274;28;19917;-78
2022/08/31 10:04:35;;;;;;;;;;;;;;;20.56;100.00;147892.94;5052088;28;20004;-80
2022/08/31 10:07:10;;;;;;;;;;;;;;;20.48;100.00;147872.44;5051421;28;19921;-79
2022/08/31 10:09:36;;;;;;;;;;;;;;;20.83;100.00;147959.59;5053442;28;20000;-78
2022/08/31 10:12:14;;;;;;;;;;;;;;;20.59;100.00;147900.63;5051999;28;20048;-79
2022/08/31 10:14:43;;;;;;;;;;;;;;;20.63;100.00;147910.88;5052181;28;19916;-79
2022/08/31 10:17:14;;;;;;;;;;;;;;;20.64;100.00;147912.16;5049185;28;19916;-80
2022/08/31 10:19:52;;;;;;;;;;;;;;;20.88;100.00;147971.13;5050109;28;19917;-78
2022/08/31 10:22:26;;;;;;;;;;;;;;;21.13;100.00;148033.91;5051650;28;19960;-81
2022/08/31 10:25:03;;;;;;;;;;;;;;;20.62;100.00;147908.31;5053226;28;19917;-82
2022/08/31 10:27:37;;;;;;;;;;;;;;;20.41;100.00;147854.50;5051927;28;19954;-81
2022/08/31 10:30:23;;;;;;;;;;;;;;;20.60;100.00;147903.19;5053899;28;19924;-80
2022/08/31 10:32:54;;;;;;;;;;;;;;;20.57;100.00;147894.19;5052221;28;19959;-78
2022/08/31 10:35:41;;;;;;;;;;;;;;;20.57;100.00;147894.19;5051254;28;20495;-81
2022/08/31 10:38:25;;;;;;;;;;;;;;;20.91;100.00;147978.81;5051834;28;19924;-81
2022/08/31 10:41:09;;;;;;;;;;;;;;;20.87;100.00;147968.59;5051858;28;19913;-78
2022/08/31 10:43:49;;;;;;;;;;;;;;;20.89;100.00;147973.72;5051700;28;19939;-79
2022/08/31 10:46:15;;;;;;;;;;;;;;;20.88;100.00;147971.13;5051066;28;19920;-81
2022/08/31 10:48:45;;;;;;;;;;;;;;;20.84;100.00;147960.91;5050880;28;19923;-79
2022/08/31 10:51:19;;;;;;;;;;;;;;;20.82;100.00;147957.06;5051218;28;20044;-79
2022/08/31 10:54:05;;;;;;;;;;;;;;;20.90;100.00;147976.28;5051570;28;19916;-78
2022/08/31 10:56:57;;;;;;;;;;;;;;;20.98;100.00;147998.06;5051403;28;19947;-78
2022/08/31 10:59:41;;;;;;;;;;;;;;;21.00;100.00;148000.63;5049528;28;19917;-79
2022/08/31 11:02:26;;;;;;;;;;;;;;;21.00;100.00;148000.63;5052297;28;20004;-82
2022/08/31 11:05:06;;;;;;;;;;;;;;;21.04;100.00;148010.91;5051119;28;19999;-80
2022/08/31 11:07:50;;;;;;;;;;;;;;;21.16;100.00;148042.94;5051419;28;19921;-78
2022/08/31 11:10:18;;;;;;;;;;;;;;;21.11;100.00;148028.81;5052080;28;20015;-82
2022/08/31 11:12:50;;;;;;;;;;;;;;;21.38;100.00;148095.47;5051463;28;19920;-78
2022/08/31 11:15:37;;;;;;;;;;;;;;;21.52;100.00;148132.69;5052222;28;19917;-80
2022/08/31 11:18:24;;;;;;;;;;;;;;;21.62;100.00;148155.78;5051648;28;19924;-80
2022/08/31 11:21:09;;;;;;;;;;;;;;;21.38;100.00;148095.47;5050576;28;19939;-78
2022/08/31 11:23:49;;;;;;;;;;;;;;;21.22;100.00;148057.00;5050237;28;20383;-79
2022/08/31 11:26:42;;;;;;;;;;;;;;;21.27;100.00;148069.84;5049839;28;20211;-78
2022/08/31 11:29:30;;;;;;;;;;;;;;;21.55;100.00;148139.13;5054275;28;19971;-78
2022/08/31 11:32:03;;;;;;;;;;;;;;;21.61;100.00;148153.19;5053252;28;20567;-81
2022/08/31 11:34:33;;;;;;;;;;;;;;;21.50;100.00;148127.59;5053302;28;19913;-77
2022/08/31 11:37:03;;;;;;;;;;;;;;;21.32;100.00;148081.38;5053059;28;20339;-79
2022/08/31 11:39:34;;;;;;;;;;;;;;;21.20;100.00;148050.63;5053361;28;20007;-77
2022/08/31 11:42:00;;;;;;;;;;;;;;;21.56;100.00;148140.41;5053299;28;19924;-76
2022/08/31 11:44:30;;;;;;;;;;;;;;;21.63;100.00;148158.34;5053028;28;20281;-77
2022/08/31 11:47:11;;;;;;;;;;;;;;;21.90;100.00;148225.03;5053160;28;19917;-77
2022/08/31 11:49:46;;;;;;;;;;;;;;;21.76;100.00;148191.66;5053440;28;19986;-75
2022/08/31 11:52:23;;;;;;;;;;;;;;;21.71;100.00;148177.59;5052810;28;20397;-78
2022/08/31 11:54:49;;;;;;;;;;;;;;;21.49;100.00;148125.00;5053589;28;19912;-76
2022/08/31 11:57:24;;;;;;;;;;;;;;;21.40;100.00;148101.88;5052788;28;20355;-76
2022/08/31 11:59:50;;;;;;;;;;;;;;;21.80;100.00;148201.94;5052534;28;19913;-81
2022/08/31 12:02:23;;;;;;;;;;;;;;;22.10;100.00;148276.31;5052341;28;19917;-81
2022/08/31 12:04:50;;;;;;;;;;;;;;;22.02;100.00;148255.81;5053339;28;19913;-77
2022/08/31 12:07:31;;;;;;;;;;;;;;;21.84;100.00;148210.91;5052919;28;19917;-82
2022/08/31 12:09:59;;;;;;;;;;;;;;;21.69;100.00;148173.75;5052878;28;19917;-81
2022/08/31 12:12:41;;;;;;;;;;;;;;;21.80;100.00;148200.69;5052829;28;19916;-79
2022/08/31 12:15:26;;;;;;;;;;;;;;;21.76;100.00;148190.41;5053226;28;19912;-79
2022/08/31 12:17:58;;;;;;;;;;;;;;;21.91;100.00;148228.88;5052971;28;19923;-77
2022/08/31 12:23:50;;;;;;;;;;;;;;;21.79;100.00;148199.38;5053256;28;19919;-79
2022/08/31 12:26:19;;;;;;;;;;;;;;;22.05;100.00;148263.50;5052641;28;19923;-78
2022/08/31 12:29:02;;;;;;;;;;;;;;;22.07;100.00;148268.63;5053081;28;19963;-76
2022/08/31 12:31:28;;;;;;;;;;;;;;;22.14;100.00;148285.28;5052127;28;19916;-78
2022/08/31 12:34:13;;;;;;;;;;;;;;;22.05;100.00;148263.50;5052939;28;19939;-76
2022/08/31 12:36:38;;;;;;;;;;;;;;;22.20;100.00;148300.66;5053032;28;19963;-80
2022/08/31 12:39:12;;;;;;;;;;;;;;;22.19;100.00;148298.13;5051953;28;20376;-80
2022/08/31 12:41:45;;;;;;;;;;;;;;;22.05;100.00;148263.50;5052728;28;20453;-81
2022/08/31 12:44:17;;;;;;;;;;;;;;;22.14;100.00;148286.59;5052962;28;20398;-76
2022/08/31 12:46:56;;;;;;;;;;;;;;;22.20;100.00;148302.00;5053242;28;19921;-81
2022/08/31 12:49:31;;;;;;;;;;;;;;;22.16;100.00;148291.72;5053247;28;19984;-81
2022/08/31 12:52:24;;;;;;;;;;;;;;;22.13;100.00;148282.75;5055106;28;20324;-81